Time;durP1;ratioP1;P1;durP2;ratioP2;P2;SDS_P1;SDS_P2;PMS_P1;PMS_P2;Temp;Humidity;BMP_temperature;BMP_pressure;BME280_temperature;BME280_humidity;BME280_pressure;Samples;Min_cycle;Max_cycle;Signal;HPM_P1;HPM_P2
2021/08/30 00:01:59;;;;;;;57.73;2.60;;;14.30;91.00;;;;;;5073763;28;21027;-68
2021/08/30 00:04:26;;;;;;;58.90;3.43;;;14.30;91.10;;;;;;5073798;28;20972;-69
2021/08/30 00:06:54;;;;;;;58.83;3.37;;;14.30;91.10;;;;;;5073520;28;20974;-68
2021/08/30 00:09:21;;;;;;;57.53;2.40;;;14.30;91.30;;;;;;5073523;28;20527;-69
2021/08/30 00:11:48;;;;;;;57.53;2.50;;;14.40;91.30;;;;;;5073307;28;21067;-68
2021/08/30 00:14:14;;;;;;;57.90;2.90;;;14.30;91.20;;;;;;5073373;28;20443;-68
2021/08/30 00:16:41;;;;;;;57.77;2.80;;;14.30;91.20;;;;;;5073204;28;20534;-69
2021/08/30 00:19:08;;;;;;;58.20;2.90;;;14.40;91.30;;;;;;5072871;28;20454;-68
2021/08/30 00:21:35;;;;;;;57.97;2.70;;;14.40;91.10;;;;;;5072910;28;20998;-68
2021/08/30 00:24:04;;;;;;;57.73;2.50;;;14.40;91.00;;;;;;5073069;28;20451;-69
2021/08/30 00:26:30;;;;;;;57.87;2.80;;;14.40;91.00;;;;;;5073088;28;20444;-69
2021/08/30 00:28:58;;;;;;;57.57;2.80;;;14.40;90.80;;;;;;5072321;28;20535;-69
2021/08/30 00:31:25;;;;;;;57.70;2.57;;;14.40;90.90;;;;;;5072563;28;20446;-69
2021/08/30 00:33:52;;;;;;;58.70;4.10;;;14.40;90.80;;;;;;5072802;28;20597;-69
2021/08/30 00:36:19;;;;;;;57.97;2.90;;;14.40;90.80;;;;;;5072616;28;20939;-69
2021/08/30 00:38:46;;;;;;;57.77;2.50;;;14.40;90.70;;;;;;5072731;28;20538;-69
2021/08/30 00:41:15;;;;;;;57.90;2.80;;;14.40;90.70;;;;;;5072684;28;20519;-68
2021/08/30 00:43:42;;;;;;;58.17;2.80;;;14.40;90.80;;;;;;5072655;28;20555;-69
2021/08/30 00:46:09;;;;;;;57.90;2.60;;;14.40;90.70;;;;;;5072544;28;20940;-69
2021/08/30 00:48:36;;;;;;;59.67;4.00;;;14.50;90.80;;;;;;5072398;28;20540;-68
2021/08/30 00:51:02;;;;;;;57.67;2.50;;;14.50;90.80;;;;;;5072278;28;20958;-69
2021/08/30 00:53:29;;;;;;;57.90;2.90;;;14.50;90.50;;;;;;5072366;28;20579;-69
2021/08/30 00:55:56;;;;;;;58.00;2.90;;;14.50;90.20;;;;;;5072480;28;20447;-68
2021/08/30 00:58:24;;;;;;;58.03;2.97;;;14.50;90.10;;;;;;5072517;28;20455;-69
2021/08/30 01:00:51;;;;;;;57.90;2.47;;;14.50;89.90;;;;;;5072141;28;20479;-69
2021/08/30 01:03:18;;;;;;;57.77;2.40;;;14.50;89.90;;;;;;5071997;28;20479;-69
2021/08/30 01:05:54;;;;;;;58.10;2.90;;;14.50;89.90;;;;;;5072331;28;20486;-68
2021/08/30 01:08:25;;;;;;;57.87;2.60;;;14.50;89.90;;;;;;5072236;28;20448;-69
2021/08/30 01:10:56;;;;;;;58.17;3.33;;;14.50;90.30;;;;;;5072028;28;20451;-69
2021/08/30 01:13:32;;;;;;;58.30;3.10;;;14.50;90.20;;;;;;5072017;28;20574;-69
2021/08/30 01:16:02;;;;;;;58.00;3.03;;;14.50;90.20;;;;;;5072378;28;20463;-69
2021/08/30 01:18:32;;;;;;;59.77;3.30;;;14.50;90.20;;;;;;5072273;28;20475;-69
2021/08/30 01:21:17;;;;;;;57.67;2.70;;;14.50;90.00;;;;;;5071881;28;20447;-69
2021/08/30 01:23:48;;;;;;;57.87;2.50;;;14.50;89.40;;;;;;5072043;28;20563;-69
2021/08/30 01:26:16;;;;;;;58.90;2.90;;;14.50;89.20;;;;;;5071890;28;20445;-69
2021/08/30 01:28:52;;;;;;;57.83;2.87;;;14.50;88.90;;;;;;5072187;28;20444;-69
2021/08/30 01:31:28;;;;;;;58.07;2.70;;;14.50;88.40;;;;;;5071802;28;20528;-69
2021/08/30 01:33:56;;;;;;;57.90;2.70;;;14.50;86.80;;;;;;5071796;28;20483;-69
2021/08/30 01:36:23;;;;;;;57.77;2.50;;;14.50;86.80;;;;;;5071741;28;20538;-69
2021/08/30 01:38:50;;;;;;;58.07;2.60;;;14.50;86.70;;;;;;5071760;28;20443;-70
2021/08/30 01:41:18;;;;;;;57.87;2.60;;;14.50;86.80;;;;;;5071749;28;20558;-70
2021/08/30 01:43:46;;;;;;;57.90;2.50;;;14.50;86.70;;;;;;5071874;28;20459;-70
2021/08/30 01:46:14;;;;;;;57.90;3.00;;;14.50;86.40;;;;;;5071701;28;20542;-70
2021/08/30 01:48:48;;;;;;;57.97;2.60;;;14.50;86.30;;;;;;5071759;28;20967;-70
2021/08/30 01:51:17;;;;;;;57.87;2.80;;;14.50;86.00;;;;;;5071529;28;20456;-70
2021/08/30 01:53:45;;;;;;;57.97;2.70;;;14.50;86.40;;;;;;5071727;28;20487;-71
2021/08/30 01:56:13;;;;;;;57.87;2.70;;;14.50;86.20;;;;;;5070061;28;20451;-70
2021/08/30 02:01:25;;;;;;;58.47;2.93;;;14.50;85.40;;;;;;5071638;28;20788;-70
2021/08/30 02:03:52;;;;;;;57.80;2.50;;;14.40;85.50;;;;;;5071628;28;20857;-70
2021/08/30 02:06:20;;;;;;;59.67;3.10;;;14.40;85.60;;;;;;5072153;28;20534;-70
2021/08/30 02:08:47;;;;;;;57.87;2.50;;;14.40;86.40;;;;;;5071924;28;20531;-70
2021/08/30 02:11:20;;;;;;;58.50;3.13;;;14.50;86.70;;;;;;5071329;28;20448;-70
2021/08/30 02:13:47;;;;;;;58.10;2.60;;;14.50;86.20;;;;;;5071613;28;20574;-70
2021/08/30 02:16:14;;;;;;;57.90;2.60;;;14.50;85.20;;;;;;5071733;28;20450;-70
2021/08/30 02:18:45;;;;;;;57.83;2.60;;;14.40;85.30;;;;;;5071670;28;20540;-70
2021/08/30 02:21:17;;;;;;;57.63;2.60;;;14.40;85.70;;;;;;5071283;28;20448;-70
2021/08/30 02:23:57;;;;;;;58.00;2.70;;;14.50;85.50;;;;;;5071703;28;20471;-70
2021/08/30 02:26:30;;;;;;;57.97;2.77;;;14.40;85.80;;;;;;5071776;28;20457;-70
2021/08/30 02:28:59;;;;;;;58.07;2.57;;;14.40;85.60;;;;;;5071583;28;20542;-70
2021/08/30 02:31:28;;;;;;;57.87;2.60;;;14.40;85.30;;;;;;5071334;28;20439;-70
2021/08/30 02:33:56;;;;;;;57.77;2.40;;;14.40;85.00;;;;;;5071253;28;20570;-70
2021/08/30 02:36:24;;;;;;;57.67;3.03;;;14.30;85.30;;;;;;5071284;28;20447;-70
2021/08/30 02:38:53;;;;;;;57.90;2.57;;;14.40;86.30;;;;;;5071557;28;20527;-70
2021/08/30 02:41:22;;;;;;;57.97;2.60;;;14.40;86.70;;;;;;5071409;28;20530;-69
2021/08/30 02:43:49;;;;;;;57.77;2.40;;;14.40;86.50;;;;;;5071300;28;20463;-68
2021/08/30 02:46:17;;;;;;;57.77;2.60;;;14.40;87.00;;;;;;5071306;28;20447;-68
2021/08/30 02:48:45;;;;;;;57.87;2.53;;;14.40;87.40;;;;;;5071172;28;20453;-69
2021/08/30 02:51:13;;;;;;;58.00;2.77;;;14.30;87.50;;;;;;5071383;28;20537;-69
2021/08/30 02:53:40;;;;;;;58.60;2.90;;;14.30;87.10;;;;;;5074714;28;20995;-69
2021/08/30 02:56:08;;;;;;;57.83;2.70;;;14.30;89.00;;;;;;5074904;28;20455;-69
2021/08/30 02:58:36;;;;;;;57.57;2.60;;;14.30;89.10;;;;;;5075092;28;20887;-69
2021/08/30 03:01:04;;;;;;;57.70;2.50;;;14.30;89.10;;;;;;5074627;28;20486;-69
2021/08/30 03:03:31;;;;;;;57.67;2.80;;;14.30;89.40;;;;;;5074479;28;20476;-68
2021/08/30 03:05:59;;;;;;;57.97;2.90;;;14.30;89.20;;;;;;5075035;28;20454;-68
2021/08/30 03:08:26;;;;;;;58.50;3.23;;;14.30;90.20;;;;;;5074924;28;20475;-68
2021/08/30 03:10:55;;;;;;;57.57;2.40;;;14.30;90.70;;;;;;5075181;28;20947;-68
2021/08/30 03:13:24;;;;;;;57.37;2.60;;;14.30;90.80;;;;;;5074468;28;20569;-68
2021/08/30 03:15:53;;;;;;;57.67;2.60;;;14.30;91.00;;;;;;5074393;28;20440;-68
2021/08/30 03:18:20;;;;;;;57.87;2.90;;;14.30;90.70;;;;;;5074317;28;20953;-69
2021/08/30 03:20:48;;;;;;;57.73;2.80;;;14.30;90.50;;;;;;5074288;28;20486;-68
2021/08/30 03:23:16;;;;;;;58.20;2.97;;;14.30;90.40;;;;;;5074342;28;20459;-68
2021/08/30 03:25:43;;;;;;;57.80;2.80;;;14.20;90.50;;;;;;5074340;28;20451;-69
2021/08/30 03:28:12;;;;;;;57.93;2.90;;;14.30;90.50;;;;;;5074215;28;20444;-68
2021/08/30 03:30:40;;;;;;;57.80;2.50;;;14.30;90.70;;;;;;5073938;28;20445;-68
2021/08/30 03:33:09;;;;;;;57.73;3.00;;;14.30;91.00;;;;;;5074129;28;20483;-68
2021/08/30 03:35:37;;;;;;;57.90;2.60;;;14.30;90.70;;;;;;5074205;28;20452;-69
2021/08/30 03:38:05;;;;;;;57.70;2.93;;;14.30;91.00;;;;;;5074246;28;20443;-68
2021/08/30 03:40:33;;;;;;;58.80;3.20;;;14.30;91.00;;;;;;5073849;28;20475;-69
2021/08/30 03:43:01;;;;;;;58.10;3.47;;;14.30;90.90;;;;;;5073724;28;20976;-68
2021/08/30 03:45:29;;;;;;;57.80;2.60;;;14.30;91.10;;;;;;5074073;28;20547;-68
2021/08/30 03:47:58;;;;;;;57.77;2.90;;;14.30;91.40;;;;;;5073742;28;20455;-69
2021/08/30 03:50:25;;;;;;;57.97;2.80;;;14.30;91.60;;;;;;5073674;28;20454;-68
2021/08/30 03:52:54;;;;;;;57.83;2.50;;;14.30;91.40;;;;;;5073587;28;20490;-68
2021/08/30 03:55:21;;;;;;;57.80;2.67;;;14.30;91.70;;;;;;5073626;28;20456;-68
2021/08/30 03:57:50;;;;;;;57.53;2.40;;;14.30;91.80;;;;;;5073558;28;20543;-68
2021/08/30 04:00:18;;;;;;;58.20;2.80;;;14.30;92.30;;;;;;5073568;28;20550;-69
2021/08/30 04:02:46;;;;;;;57.57;2.47;;;14.30;92.50;;;;;;5073232;28;20467;-69
2021/08/30 04:05:18;;;;;;;57.90;2.60;;;14.30;92.80;;;;;;5072838;28;20548;-69
2021/08/30 04:07:45;;;;;;;57.80;2.47;;;14.30;92.90;;;;;;5073471;28;20797;-69
2021/08/30 04:10:12;;;;;;;57.97;2.80;;;14.40;92.90;;;;;;5073087;28;20970;-69
2021/08/30 04:12:39;;;;;;;57.87;2.60;;;14.40;92.90;;;;;;5073371;28;20467;-69
2021/08/30 04:15:07;;;;;;;58.00;2.67;;;14.30;93.10;;;;;;5073506;28;20530;-69
2021/08/30 04:17:34;;;;;;;57.60;2.60;;;14.40;93.20;;;;;;5073271;28;20443;-69
2021/08/30 04:20:00;;;;;;;58.47;3.37;;;14.30;93.20;;;;;;5073037;28;20534;-69
2021/08/30 04:22:29;;;;;;;57.70;2.47;;;14.30;93.70;;;;;;5073041;28;20558;-68
2021/08/30 04:24:55;;;;;;;57.70;2.60;;;14.30;93.60;;;;;;5073088;28;20444;-69
2021/08/30 04:27:22;;;;;;;57.87;2.50;;;14.30;93.70;;;;;;5072953;28;20451;-69
2021/08/30 04:29:49;;;;;;;57.57;2.50;;;14.40;93.90;;;;;;5072905;28;20450;-69
2021/08/30 04:32:16;;;;;;;59.00;3.57;;;14.40;93.90;;;;;;5073197;28;20551;-70
2021/08/30 04:34:43;;;;;;;58.07;3.17;;;14.40;94.00;;;;;;5073031;28;20499;-70
2021/08/30 04:37:10;;;;;;;58.30;3.60;;;14.30;94.00;;;;;;5072678;28;20456;-69
2021/08/30 04:39:39;;;;;;;57.90;2.90;;;14.30;94.30;;;;;;5072806;28;20447;-69
2021/08/30 04:42:06;;;;;;;57.67;2.60;;;14.40;94.50;;;;;;5072713;28;20468;-69
2021/08/30 04:44:33;;;;;;;57.87;2.60;;;14.40;94.90;;;;;;5073038;28;20448;-69
2021/08/30 04:47:01;;;;;;;57.90;2.90;;;14.40;95.00;;;;;;5072651;28;20450;-69
2021/08/30 04:49:28;;;;;;;57.87;2.80;;;14.40;95.00;;;;;;5072707;28;20453;-69
2021/08/30 04:51:55;;;;;;;57.87;3.00;;;14.40;95.20;;;;;;5072719;28;20465;-69
2021/08/30 04:54:22;;;;;;;57.80;2.70;;;14.40;95.60;;;;;;5072622;28;20574;-70
2021/08/30 04:56:50;;;;;;;57.93;2.60;;;14.40;96.00;;;;;;5072781;28;20534;-69
2021/08/30 04:59:17;;;;;;;58.00;2.60;;;14.40;96.20;;;;;;5072353;28;20539;-69
2021/08/30 05:01:44;;;;;;;58.03;2.97;;;14.40;96.40;;;;;;5072318;28;20531;-69
2021/08/30 05:04:11;;;;;;;57.70;2.63;;;14.40;96.40;;;;;;5072200;28;20462;-69
2021/08/30 05:06:37;;;;;;;57.47;2.60;;;14.40;96.70;;;;;;5072234;28;21019;-69
2021/08/30 05:09:04;;;;;;;57.57;2.50;;;14.40;96.70;;;;;;5072318;28;20548;-69
2021/08/30 05:11:31;;;;;;;57.57;2.50;;;14.40;97.00;;;;;;5072127;28;20940;-69
2021/08/30 05:14:00;;;;;;;57.80;2.60;;;14.40;97.00;;;;;;5072155;28;20486;-69
2021/08/30 05:16:27;;;;;;;57.87;2.80;;;14.40;97.50;;;;;;5072159;28;20534;-69
2021/08/30 05:18:54;;;;;;;58.17;3.10;;;14.40;97.50;;;;;;5072458;28;20486;-70
2021/08/30 05:21:21;;;;;;;57.90;2.80;;;14.40;97.80;;;;;;5071922;28;20957;-69
2021/08/30 05:23:47;;;;;;;59.33;3.00;;;14.40;97.90;;;;;;5073238;28;20463;-69
2021/08/30 05:26:14;;;;;;;57.83;3.10;;;14.50;98.10;;;;;;5073195;28;20774;-69
2021/08/30 05:28:41;;;;;;;58.10;2.90;;;14.50;98.00;;;;;;5072184;28;20487;-69
2021/08/30 05:31:09;;;;;;;57.80;2.70;;;14.50;98.20;;;;;;5071870;28;20449;-69
2021/08/30 05:33:37;;;;;;;57.77;2.60;;;14.60;98.00;;;;;;5071669;28;20574;-68
2021/08/30 05:36:04;;;;;;;59.07;3.63;;;14.60;97.80;;;;;;5072011;28;20538;-69
2021/08/30 05:38:31;;;;;;;57.80;2.67;;;14.60;97.70;;;;;;5072029;28;20448;-69
2021/08/30 05:40:58;;;;;;;58.73;3.43;;;14.60;97.60;;;;;;5071663;28;20538;-69
2021/08/30 05:43:25;;;;;;;57.93;2.60;;;14.60;97.30;;;;;;5071744;28;20469;-69
2021/08/30 05:45:52;;;;;;;57.73;2.60;;;14.60;97.60;;;;;;5072029;28;20447;-68
2021/08/30 05:48:20;;;;;;;57.90;2.90;;;14.60;97.70;;;;;;5072126;28;20569;-69
2021/08/30 05:50:47;;;;;;;58.30;3.30;;;14.70;97.60;;;;;;5071485;28;20447;-68
2021/08/30 05:53:14;;;;;;;57.47;2.50;;;14.70;97.50;;;;;;5071640;28;20977;-69
2021/08/30 05:55:41;;;;;;;57.90;3.03;;;14.70;97.30;;;;;;5071773;28;20448;-69
2021/08/30 05:58:08;;;;;;;57.87;2.80;;;14.80;96.60;;;;;;5071660;28;20451;-69
2021/08/30 06:00:35;;;;;;;58.07;3.23;;;14.70;96.20;;;;;;5071453;28;20809;-69
2021/08/30 06:03:01;;;;;;;58.23;3.33;;;14.80;95.90;;;;;;5071607;28;20853;-68
2021/08/30 06:05:30;;;;;;;57.63;2.80;;;14.80;95.70;;;;;;5071532;28;20455;-69
2021/08/30 06:07:57;;;;;;;57.60;2.60;;;14.80;95.50;;;;;;5071414;28;20485;-69
2021/08/30 06:10:23;;;;;;;58.07;2.80;;;14.80;95.20;;;;;;5071448;28;20827;-68
2021/08/30 06:12:51;;;;;;;57.67;2.70;;;14.90;95.10;;;;;;5071487;28;20552;-69
2021/08/30 06:15:18;;;;;;;58.30;3.40;;;15.00;95.10;;;;;;5071403;28;20486;-69
2021/08/30 06:17:45;;;;;;;57.70;2.57;;;15.00;94.90;;;;;;5071398;28;20489;-69
2021/08/30 06:20:13;;;;;;;57.63;3.13;;;15.10;94.90;;;;;;5071358;28;20489;-69
2021/08/30 06:22:41;;;;;;;57.57;2.50;;;15.20;94.30;;;;;;5071516;28;20551;-68
2021/08/30 06:25:09;;;;;;;57.53;2.70;;;15.30;93.40;;;;;;5071876;28;20439;-69
2021/08/30 06:27:36;;;;;;;57.60;2.70;;;15.40;92.30;;;;;;5073438;28;20452;-68
2021/08/30 06:30:03;;;;;;;57.47;2.50;;;15.40;91.50;;;;;;5075233;28;20468;-67
2021/08/30 06:32:30;;;;;;;57.87;2.73;;;15.40;91.30;;;;;;5075488;28;20557;-67
2021/08/30 06:34:57;;;;;;;57.67;2.70;;;15.50;91.20;;;;;;5075398;28;20843;-67
2021/08/30 06:37:24;;;;;;;57.87;2.60;;;15.60;90.70;;;;;;5075197;28;20486;-68
2021/08/30 06:39:52;;;;;;;58.60;3.33;;;15.60;90.30;;;;;;5074920;28;20487;-68
2021/08/30 06:42:19;;;;;;;58.00;3.13;;;15.70;85.50;;;;;;5074796;28;21067;-68
2021/08/30 06:44:46;;;;;;;57.77;2.53;;;15.70;82.90;;;;;;5075213;28;20474;-67
2021/08/30 06:47:12;;;;;;;57.77;2.87;;;15.80;78.10;;;;;;5075046;28;20890;-68
2021/08/30 06:49:39;;;;;;;58.30;3.73;;;15.70;76.30;;;;;;5074734;28;20488;-68
2021/08/30 06:52:07;;;;;;;57.83;2.50;;;15.70;76.60;;;;;;5074999;28;20840;-68
2021/08/30 06:54:35;;;;;;;59.00;3.77;;;15.80;75.10;;;;;;5074758;28;20481;-67
2021/08/30 06:57:03;;;;;;;57.53;2.50;;;15.90;74.60;;;;;;5075014;28;20503;-68
2021/08/30 06:59:30;;;;;;;57.77;2.87;;;16.10;73.00;;;;;;5074742;28;20452;-67
2021/08/30 07:01:57;;;;;;;60.37;3.50;;;16.20;63.50;;;;;;5074716;28;20555;-68
2021/08/30 07:04:24;;;;;;;58.30;3.10;;;16.30;60.10;;;;;;5074775;28;20549;-68
2021/08/30 07:06:51;;;;;;;58.07;2.90;;;16.40;43.10;;;;;;5074597;28;20446;-68
2021/08/30 07:09:18;;;;;;;58.40;3.40;;;16.50;35.50;;;;;;5074318;28;20817;-68
2021/08/30 07:11:45;;;;;;;58.83;4.30;;;16.60;35.20;;;;;;5074650;28;20481;-68
2021/08/30 07:14:13;;;;;;;57.87;2.53;;;16.60;22.70;;;;;;5074525;28;20481;-68
2021/08/30 07:16:40;;;;;;;57.87;2.70;;;16.60;15.60;;;;;;5074367;28;20481;-68
2021/08/30 07:19:07;;;;;;;58.17;2.80;;;16.50;15.60;;;;;;5074122;28;20446;-68
2021/08/30 07:21:34;;;;;;;57.73;2.80;;;16.60;14.70;;;;;;5074232;28;20533;-68
2021/08/30 07:24:00;;;;;;;58.17;2.90;;;16.70;8.70;;;;;;5074560;28;20875;-66
2021/08/30 07:26:27;;;;;;;58.17;2.80;;;16.70;5.20;;;;;;5074166;28;21025;-67
2021/08/30 07:28:54;;;;;;;58.67;3.10;;;16.60;1.00;;;;;;5074569;28;20802;-67
2021/08/30 07:31:23;;;;;;;58.27;3.27;;;16.50;1.00;;;;;;5074071;28;20541;-68
2021/08/30 07:33:50;;;;;;;58.67;2.90;;;16.50;1.00;;;;;;5074013;28;20818;-69
2021/08/30 07:36:17;;;;;;;59.07;3.57;;;16.50;1.90;;;;;;5074002;28;20541;-69
2021/08/30 07:38:43;;;;;;;58.17;2.70;;;16.60;1.30;;;;;;5074140;28;20951;-69
2021/08/30 07:41:10;;;;;;;57.90;2.70;;;16.70;1.00;;;;;;5074023;28;20832;-67
2021/08/30 07:43:37;;;;;;;57.93;2.40;;;16.70;1.00;;;;;;5073989;28;21021;-67
2021/08/30 07:46:04;;;;;;;57.90;2.70;;;16.80;1.00;;;;;;5073904;28;20498;-67
2021/08/30 07:48:32;;;;;;;58.07;2.50;;;16.80;1.00;;;;;;5073860;28;20541;-68
2021/08/30 07:50:59;;;;;;;57.93;2.93;;;16.80;1.00;;;;;;5073507;28;20544;-68
2021/08/30 07:53:28;;;;;;;57.67;2.30;;;16.70;1.00;;;;;;5073865;28;20466;-68
2021/08/30 07:55:56;;;;;;;58.07;2.60;;;16.60;1.00;;;;;;5073721;28;20485;-68
2021/08/30 07:58:23;;;;;;;57.87;2.50;;;16.50;1.00;;;;;;5073962;28;20442;-68
2021/08/30 08:00:51;;;;;;;58.00;2.90;;;16.30;1.00;;;;;;5073401;28;20454;-68
2021/08/30 08:03:17;;;;;;;57.77;2.53;;;16.30;1.00;;;;;;5073343;28;20509;-68
2021/08/30 08:05:45;;;;;;;57.23;2.57;;;16.20;1.00;;;;;;5073446;28;20957;-69
2021/08/30 08:08:12;;;;;;;57.87;2.60;;;16.20;1.00;;;;;;5073368;28;21024;-69
2021/08/30 08:10:40;;;;;;;58.80;3.67;;;16.20;1.00;;;;;;5073376;28;20482;-69
2021/08/30 08:13:07;;;;;;;57.67;2.50;;;16.10;1.00;;;;;;5073755;28;20466;-69
2021/08/30 08:15:34;;;;;;;58.30;2.90;;;16.10;1.00;;;;;;5073329;28;20511;-68
2021/08/30 08:18:01;;;;;;;57.67;2.50;;;16.00;1.00;;;;;;5072988;28;20972;-68
2021/08/30 08:20:30;;;;;;;57.80;2.40;;;16.00;3.50;;;;;;5073153;28;20537;-68
2021/08/30 08:22:59;;;;;;;57.93;2.63;;;16.00;12.90;;;;;;5073290;28;20588;-68
2021/08/30 08:25:26;;;;;;;57.63;2.70;;;16.00;14.20;;;;;;5073248;28;20447;-68
2021/08/30 08:27:53;;;;;;;57.57;2.60;;;16.00;13.50;;;;;;5073341;28;20547;-68
2021/08/30 08:30:21;;;;;;;57.73;2.67;;;16.00;15.30;;;;;;5072764;28;20470;-68
2021/08/30 08:32:48;;;;;;;57.93;2.50;;;16.00;15.30;;;;;;5073132;28;20478;-68
2021/08/30 08:35:16;;;;;;;58.40;2.90;;;16.10;18.00;;;;;;5073042;28;20491;-68
2021/08/30 08:37:42;;;;;;;58.00;2.57;;;16.10;13.80;;;;;;5072957;28;20551;-68
2021/08/30 08:40:12;;;;;;;58.00;2.70;;;16.10;14.00;;;;;;5072726;28;20871;-68
2021/08/30 08:42:40;;;;;;;57.90;2.77;;;16.00;14.10;;;;;;5072762;28;20474;-68
2021/08/30 08:45:09;;;;;;;58.20;2.80;;;15.90;15.00;;;;;;5072641;28;20451;-68
2021/08/30 08:47:37;;;;;;;58.10;2.90;;;15.90;15.20;;;;;;5072555;28;20446;-68
2021/08/30 08:50:05;;;;;;;57.67;2.40;;;15.80;24.50;;;;;;5072088;28;20448;-68
2021/08/30 08:52:33;;;;;;;59.00;2.93;;;15.90;36.00;;;;;;5072646;28;20480;-68
2021/08/30 08:55:01;;;;;;;58.10;2.70;;;16.00;38.50;;;;;;5072467;28;20581;-68
2021/08/30 08:57:29;;;;;;;58.07;2.50;;;16.30;47.70;;;;;;5072339;28;20453;-68
2021/08/30 08:59:57;;;;;;;57.93;2.47;;;16.50;47.80;;;;;;5072524;28;20834;-68
2021/08/30 09:02:29;;;;;;;58.30;2.70;;;16.70;40.00;;;;;;5072521;28;20464;-68
2021/08/30 09:04:57;;;;;;;57.70;2.50;;;16.90;31.00;;;;;;5072290;28;20442;-68
2021/08/30 09:07:33;;;;;;;58.10;2.90;;;17.30;23.80;;;;;;5072555;28;20450;-68
2021/08/30 09:10:01;;;;;;;58.20;3.07;;;17.70;1.00;;;;;;5072199;28;20442;-68
2021/08/30 09:12:29;;;;;;;57.77;2.60;;;17.80;1.00;;;;;;5072480;28;20463;-68
2021/08/30 09:14:57;;;;;;;57.77;2.60;;;17.80;1.00;;;;;;5072282;28;20753;-68
2021/08/30 09:17:24;;;;;;;57.93;2.60;;;17.60;1.00;;;;;;5072198;28;20881;-68
2021/08/30 09:19:55;;;;;;;58.27;3.13;;;17.40;1.00;;;;;;5072029;28;20451;-68
2021/08/30 09:22:29;;;;;;;58.47;3.17;;;17.30;1.00;;;;;;5072112;28;20477;-68
2021/08/30 09:25:05;;;;;;;58.00;2.70;;;17.30;1.00;;;;;;5072362;28;20441;-68
2021/08/30 09:27:37;;;;;;;58.80;3.23;;;17.50;1.00;;;;;;5072153;28;20813;-69
2021/08/30 09:30:05;;;;;;;57.90;2.97;;;17.90;2.10;;;;;;5071784;28;20537;-68
2021/08/30 09:32:33;;;;;;;57.90;2.60;;;18.50;1.00;;;;;;5072050;28;20469;-69
2021/08/30 09:35:02;;;;;;;58.00;3.33;;;19.00;1.00;;;;;;5071945;28;20475;-69
2021/08/30 09:37:29;;;;;;;57.90;2.97;;;19.40;1.00;;;;;;5071887;28;20545;-68
2021/08/30 09:39:59;;;;;;;58.73;3.33;;;19.50;1.00;;;;;;5071965;28;20444;-69
2021/08/30 09:42:27;;;;;;;58.10;2.70;;;19.40;1.00;;;;;;5071871;28;20471;-69
2021/08/30 09:45:10;;;;;;;58.37;2.87;;;19.20;1.00;;;;;;5071865;28;20439;-69
2021/08/30 09:47:37;;;;;;;58.90;2.67;;;18.90;1.00;;;;;;5071723;28;20461;-69
2021/08/30 09:50:09;;;;;;;58.07;2.40;;;18.40;1.00;;;;;;5071972;28;20449;-69
2021/08/30 09:52:36;;;;;;;57.83;2.70;;;18.10;1.00;;;;;;5071920;28;20467;-69
2021/08/30 09:55:03;;;;;;;60.40;3.50;;;17.80;1.00;;;;;;5071719;28;20573;-69
2021/08/30 09:57:31;;;;;;;58.47;3.10;;;17.60;1.00;;;;;;5071677;28;20880;-69
2021/08/30 10:00:02;;;;;;;57.97;3.07;;;17.40;1.00;;;;;;5071477;28;20478;-69
2021/08/30 10:02:30;;;;;;;57.80;2.90;;;17.40;1.00;;;;;;5073902;28;20645;-69
2021/08/30 10:05:00;;;;;;;57.90;2.60;;;17.40;1.00;;;;;;5075814;28;20439;-69
2021/08/30 10:07:28;;;;;;;58.20;2.50;;;17.50;1.00;;;;;;5075619;28;20994;-69
2021/08/30 10:09:56;;;;;;;58.17;2.90;;;17.60;1.00;;;;;;5075565;28;20470;-69
2021/08/30 10:12:23;;;;;;;58.20;2.93;;;17.70;1.00;;;;;;5075635;28;20506;-69
2021/08/30 10:14:51;;;;;;;58.97;2.90;;;17.80;1.00;;;;;;5075711;28;20486;-69
2021/08/30 10:17:19;;;;;;;58.00;2.57;;;17.80;1.00;;;;;;5075732;28;20447;-69
2021/08/30 10:19:56;;;;;;;58.30;2.53;;;17.80;1.00;;;;;;5075372;28;20447;-69
2021/08/30 10:22:23;;;;;;;58.20;2.47;;;17.80;1.00;;;;;;5075521;28;20466;-69
2021/08/30 10:24:51;;;;;;;57.80;2.70;;;17.90;1.00;;;;;;5075357;28;20542;-69
2021/08/30 10:27:29;;;;;;;57.97;2.70;;;18.00;1.00;;;;;;5075296;28;20538;-69
2021/08/30 10:30:05;;;;;;;58.07;2.90;;;18.10;1.00;;;;;;5075181;28;20479;-69
2021/08/30 10:32:38;;;;;;;59.47;3.20;;;18.30;1.00;;;;;;5075305;28;20498;-69
2021/08/30 10:35:14;;;;;;;57.77;2.67;;;18.40;1.00;;;;;;5075464;28;20574;-69
2021/08/30 10:37:48;;;;;;;58.70;3.67;;;18.30;1.00;;;;;;5074969;28;20545;-69
2021/08/30 10:40:16;;;;;;;58.20;2.93;;;18.30;1.00;;;;;;5075070;28;20588;-69
2021/08/30 10:42:43;;;;;;;58.20;2.67;;;18.20;1.00;;;;;;5075310;28;20502;-69
2021/08/30 10:45:11;;;;;;;58.07;2.70;;;18.10;1.00;;;;;;5075231;28;20535;-69
2021/08/30 10:47:40;;;;;;;58.07;2.90;;;18.00;1.00;;;;;;5074999;28;20807;-70
2021/08/30 10:50:20;;;;;;;58.03;2.57;;;18.00;1.00;;;;;;5074602;28;20827;-70
2021/08/30 10:52:46;;;;;;;57.73;2.60;;;17.90;1.00;;;;;;5075047;28;20470;-69
2021/08/30 10:55:18;;;;;;;58.30;3.10;;;17.70;1.00;;;;;;5074844;28;20499;-69
2021/08/30 10:57:50;;;;;;;57.93;2.63;;;17.70;1.00;;;;;;5074782;28;20542;-70
2021/08/30 11:00:17;;;;;;;59.27;3.47;;;17.70;1.00;;;;;;5074552;28;20451;-69
2021/08/30 11:02:49;;;;;;;59.10;2.73;;;17.60;1.00;;;;;;5074360;28;20487;-69
2021/08/30 11:05:25;;;;;;;58.27;2.87;;;17.50;1.00;;;;;;5074727;28;20439;-68
2021/08/30 11:07:52;;;;;;;57.87;2.70;;;17.50;1.00;;;;;;5075022;28;20447;-69
2021/08/30 11:10:22;;;;;;;57.73;2.60;;;17.70;1.00;;;;;;5074800;28;20830;-69
2021/08/30 11:12:49;;;;;;;58.30;2.80;;;18.00;1.00;;;;;;5074710;28;20481;-70
2021/08/30 11:15:16;;;;;;;57.90;2.43;;;18.30;1.00;;;;;;5074452;28;20485;-70
2021/08/30 11:17:43;;;;;;;57.57;2.53;;;18.50;1.00;;;;;;5074774;28;20451;-70
2021/08/30 11:20:16;;;;;;;57.23;2.50;;;18.80;1.00;;;;;;5074484;28;20577;-70
2021/08/30 11:22:44;;;;;;;57.57;2.60;;;19.10;1.00;;;;;;5074420;28;20547;-70
2021/08/30 11:25:11;;;;;;;58.40;2.60;;;19.30;1.00;;;;;;5074526;28;20466;-70
2021/08/30 11:27:38;;;;;;;59.40;3.50;;;19.30;1.00;;;;;;5074196;28;20452;-70
2021/08/30 11:30:09;;;;;;;58.50;2.83;;;19.30;1.00;;;;;;5074204;28;20862;-70
2021/08/30 11:32:39;;;;;;;57.97;2.70;;;19.20;1.00;;;;;;5074338;28;20465;-70
2021/08/30 11:35:08;;;;;;;58.03;2.67;;;19.10;1.00;;;;;;5074406;28;20456;-70
2021/08/30 11:37:37;;;;;;;58.27;3.00;;;18.90;1.00;;;;;;5074042;28;20451;-70
2021/08/30 11:40:07;;;;;;;58.97;3.70;;;18.70;1.00;;;;;;5073669;28;20479;-70
2021/08/30 11:42:35;;;;;;;58.00;2.53;;;18.60;1.00;;;;;;5074113;28;20542;-70
2021/08/30 11:45:04;;;;;;;58.30;2.90;;;18.50;1.00;;;;;;5074092;28;20458;-70
2021/08/30 11:47:32;;;;;;;58.13;2.70;;;18.40;1.00;;;;;;5074156;28;20491;-70
2021/08/30 11:50:01;;;;;;;58.30;3.87;;;18.30;1.00;;;;;;5073539;28;20538;-70
2021/08/30 11:52:29;;;;;;;58.30;2.90;;;18.20;1.00;;;;;;5073732;28;20475;-70
2021/08/30 11:55:02;;;;;;;58.37;2.80;;;18.30;1.00;;;;;;5074126;28;20483;-71
2021/08/30 11:57:39;;;;;;;57.87;2.73;;;18.50;1.00;;;;;;5073989;28;20858;-70
2021/08/30 12:00:08;;;;;;;57.97;3.07;;;18.60;1.00;;;;;;5073660;28;20638;-70
2021/08/30 12:02:35;;;;;;;59.00;3.00;;;18.60;1.00;;;;;;5073509;28;20540;-70
2021/08/30 12:05:04;;;;;;;57.93;2.50;;;18.80;1.00;;;;;;5073615;28;20450;-70
2021/08/30 12:07:33;;;;;;;58.80;2.73;;;18.70;1.00;;;;;;5073766;28;20453;-70
2021/08/30 12:10:01;;;;;;;58.20;2.80;;;18.70;1.00;;;;;;5073551;28;20857;-69
2021/08/30 12:12:30;;;;;;;57.97;2.50;;;18.50;1.00;;;;;;5073384;28;20554;-70
2021/08/30 12:14:59;;;;;;;59.33;2.80;;;18.40;1.00;;;;;;5073329;28;20448;-70
2021/08/30 12:17:27;;;;;;;58.60;3.00;;;18.30;1.00;;;;;;5073069;28;20490;-70
2021/08/30 12:19:54;;;;;;;58.20;2.93;;;18.30;1.00;;;;;;5073226;28;20530;-69
2021/08/30 12:22:26;;;;;;;58.17;2.90;;;18.40;1.00;;;;;;5073406;28;20566;-70
2021/08/30 12:25:02;;;;;;;57.80;2.73;;;18.40;1.00;;;;;;5072468;28;20449;-70
2021/08/30 12:27:32;;;;;;;57.97;2.70;;;18.40;1.00;;;;;;5073103;28;20494;-70
2021/08/30 12:30:09;;;;;;;58.00;3.07;;;18.30;1.00;;;;;;5072820;28;20807;-70
2021/08/30 12:32:48;;;;;;;57.97;2.90;;;18.20;1.00;;;;;;5072884;28;20507;-70
2021/08/30 12:35:20;;;;;;;58.27;3.30;;;18.10;1.00;;;;;;5073239;28;20539;-70
2021/08/30 12:37:47;;;;;;;60.37;3.20;;;18.20;1.00;;;;;;5072938;28;20454;-70
2021/08/30 12:40:16;;;;;;;59.10;4.20;;;18.10;1.00;;;;;;5072609;28;20482;-70
2021/08/30 12:42:43;;;;;;;58.10;2.77;;;18.30;1.00;;;;;;5072577;28;20953;-70
2021/08/30 12:45:12;;;;;;;62.93;4.30;;;18.40;1.00;;;;;;5072673;28;20458;-70
2021/08/30 12:47:39;;;;;;;58.47;3.20;;;18.50;1.00;;;;;;5072806;28;20823;-70
2021/08/30 12:50:07;;;;;;;57.67;2.60;;;18.60;1.00;;;;;;5072534;28;20536;-70